Time;durP1;ratioP1;P1;durP2;ratioP2;P2;SDS_P1;SDS_P2;PMS_P1;PMS_P2;Temp;Humidity;BMP_temperature;BMP_pressure;BME280_temperature;BME280_humidity;BME280_pressure;Samples;Min_cycle;Max_cycle;Signal;HPM_P1;HPM_P2
2022/01/10 00:00:46;;;;;;;17.65;16.67;;;10.30;82.00;;;;;;5044571;28;20505;-81
2022/01/10 00:03:12;;;;;;;16.85;16.05;;;10.30;82.00;;;;;;5044201;28;20390;-81
2022/01/10 00:05:38;;;;;;;17.92;17.02;;;10.30;82.00;;;;;;5034345;28;20040;-81
2022/01/10 00:08:04;;;;;;;17.30;16.50;;;10.30;82.00;;;;;;5049922;28;20033;-81
2022/01/10 00:10:34;;;;;;;16.67;15.88;;;10.30;82.80;;;;;;5046793;28;20481;-81
2022/01/10 00:13:00;;;;;;;17.42;16.63;;;10.30;82.80;;;;;;5037552;28;20033;-81
2022/01/10 00:15:26;;;;;;;17.77;16.98;;;10.30;82.10;;;;;;5053553;28;20048;-81
2022/01/10 00:17:52;;;;;;;17.70;16.83;;;10.30;82.90;;;;;;5046865;28;20508;-81
2022/01/10 00:20:19;;;;;;;17.05;16.25;;;10.30;82.10;;;;;;5033562;28;20049;-81
2022/01/10 00:22:47;;;;;;;17.38;16.58;;;10.30;82.80;;;;;;5027964;28;20042;-81
2022/01/10 00:25:18;;;;;;;17.27;16.48;;;10.30;82.10;;;;;;5037334;28;20036;-81
2022/01/10 00:27:45;;;;;;;18.40;17.50;;;10.30;82.10;;;;;;5041222;28;20040;-81
2022/01/10 00:30:11;;;;;;;17.70;16.90;;;10.30;82.10;;;;;;5046154;28;20104;-82
2022/01/10 00:32:41;;;;;;;17.30;16.50;;;10.30;82.10;;;;;;5046505;28;20036;-81
2022/01/10 00:35:08;;;;;;;17.30;16.50;;;10.30;82.10;;;;;;5046755;28;20037;-81
2022/01/10 00:37:34;;;;;;;17.25;16.45;;;10.30;82.10;;;;;;5036973;28;20037;-81
2022/01/10 00:40:04;;;;;;;17.27;16.48;;;10.30;82.20;;;;;;5039808;28;20037;-81
2022/01/10 00:42:31;;;;;;;17.40;16.60;;;10.30;82.20;;;;;;5055367;28;20033;-81
2022/01/10 00:45:01;;;;;;;17.10;16.30;;;10.30;82.20;;;;;;5069042;28;20076;-81
2022/01/10 00:47:27;;;;;;;17.92;17.05;;;10.30;82.20;;;;;;5039131;28;20041;-81
2022/01/10 00:49:53;;;;;;;17.23;16.42;;;10.30;82.20;;;;;;5047808;28;20025;-81
2022/01/10 00:52:19;;;;;;;17.33;16.52;;;10.30;82.20;;;;;;5046158;28;20066;-81
2022/01/10 00:54:45;;;;;;;16.85;16.05;;;10.30;82.20;;;;;;5036145;28;20032;-81
2022/01/10 00:57:12;;;;;;;17.10;16.30;;;10.30;82.20;;;;;;5044258;28;20045;-81
2022/01/10 00:59:38;;;;;;;18.15;17.23;;;10.30;82.20;;;;;;5028168;28;20033;-81
2022/01/10 01:02:04;;;;;;;17.13;16.33;;;10.30;82.30;;;;;;5048904;28;20467;-81
2022/01/10 01:04:30;;;;;;;17.00;16.20;;;10.30;82.30;;;;;;5038388;28;20426;-81
2022/01/10 01:06:56;;;;;;;17.33;16.52;;;10.30;82.30;;;;;;5056076;28;20086;-81
2022/01/10 01:09:27;;;;;;;17.00;16.20;;;10.30;82.30;;;;;;5072676;28;20024;-81
2022/01/10 01:14:26;;;;;;;17.60;16.80;;;10.30;82.30;;;;;;5049061;28;20037;-81
2022/01/10 01:17:10;;;;;;;17.00;16.20;;;10.30;82.40;;;;;;5045318;28;20048;-81
2022/01/10 01:25:03;;;;;;;16.98;16.17;;;10.30;82.40;;;;;;5037995;28;19940;-81
2022/01/10 01:27:29;;;;;;;16.65;15.85;;;10.20;82.20;;;;;;5035674;28;20041;-81
2022/01/10 01:29:55;;;;;;;16.90;16.10;;;10.20;82.30;;;;;;5044482;28;20021;-81
2022/01/10 01:32:22;;;;;;;16.65;15.85;;;10.20;82.30;;;;;;5050371;28;20033;-81
2022/01/10 01:34:49;;;;;;;16.63;15.85;;;10.20;82.40;;;;;;5051433;28;20036;-81
2022/01/10 01:37:15;;;;;;;16.88;16.08;;;10.20;82.40;;;;;;5036247;28;20049;-81
2022/01/10 01:39:41;;;;;;;17.45;16.65;;;10.20;82.40;;;;;;5041289;28;20044;-81
2022/01/10 01:42:31;;;;;;;17.17;16.38;;;10.10;82.40;;;;;;5039239;28;20036;-81
2022/01/10 01:44:53;;;;;;;16.90;16.10;;;10.20;82.50;;;;;;5068574;28;20402;-81
2022/01/10 01:47:19;;;;;;;17.17;16.38;;;10.10;82.40;;;;;;5050383;28;20042;-81
2022/01/10 01:49:46;;;;;;;17.10;16.30;;;10.10;82.50;;;;;;5042138;28;20040;-81
2022/01/10 01:52:12;;;;;;;16.48;15.73;;;10.10;82.50;;;;;;5048860;28;20045;-81
2022/01/10 01:54:38;;;;;;;16.88;16.08;;;10.10;82.50;;;;;;5048442;28;20036;-81
2022/01/10 01:57:04;;;;;;;18.48;17.55;;;10.10;82.50;;;;;;5032844;28;20049;-81
2022/01/10 01:59:30;;;;;;;17.15;16.35;;;10.10;83.00;;;;;;5051734;28;20029;-81
2022/01/10 02:01:57;;;;;;;19.00;17.35;;;10.20;82.60;;;;;;5033684;28;20053;-81
2022/01/10 02:04:23;;;;;;;17.25;16.45;;;10.10;82.50;;;;;;5039596;28;20482;-81
2022/01/10 02:06:49;;;;;;;17.70;16.90;;;10.10;82.50;;;;;;5078066;28;20048;-81
2022/01/10 02:09:16;;;;;;;18.02;17.10;;;10.10;82.60;;;;;;5046690;28;20474;-81
2022/01/10 02:11:42;;;;;;;17.52;16.73;;;10.10;82.60;;;;;;5050415;28;20037;-81
2022/01/10 02:14:09;;;;;;;18.38;17.38;;;10.10;82.60;;;;;;5036127;28;20037;-81
2022/01/10 02:16:44;;;;;;;17.02;16.23;;;10.10;82.60;;;;;;5050114;28;20064;-81
2022/01/10 02:19:10;;;;;;;17.52;16.73;;;10.10;82.60;;;;;;5040701;28;20502;-81
2022/01/10 02:21:36;;;;;;;17.83;16.92;;;10.00;82.50;;;;;;5044343;28;20044;-81
2022/01/10 02:24:03;;;;;;;16.88;16.08;;;10.00;82.60;;;;;;5046202;28;20048;-81
2022/01/10 02:26:30;;;;;;;16.85;16.05;;;10.00;82.60;;;;;;5051517;28;20046;-81
2022/01/10 02:28:56;;;;;;;17.42;16.63;;;10.00;82.70;;;;;;5033730;28;20025;-81
2022/01/10 02:31:22;;;;;;;16.77;15.98;;;10.00;82.60;;;;;;5038824;28;20037;-81
2022/01/10 02:33:51;;;;;;;16.83;16.02;;;10.00;82.70;;;;;;5039425;28;20033;-81
2022/01/10 02:36:25;;;;;;;16.70;15.90;;;9.90;82.70;;;;;;5048284;28;20036;-81
2022/01/10 02:38:56;;;;;;;17.02;16.23;;;10.00;82.90;;;;;;5046999;28;20032;-81
2022/01/10 02:41:28;;;;;;;17.30;16.50;;;9.90;82.80;;;;;;5051910;28;20474;-81
2022/01/10 02:43:54;;;;;;;17.27;16.48;;;9.90;82.80;;;;;;5034279;28;20033;-81
2022/01/10 02:46:21;;;;;;;17.02;16.23;;;9.90;82.80;;;;;;5037750;28;20061;-81
2022/01/10 02:48:47;;;;;;;16.92;16.13;;;9.80;82.80;;;;;;5041291;28;20037;-81
2022/01/10 02:51:13;;;;;;;16.60;15.80;;;9.80;82.90;;;;;;5051937;28;20394;-81
2022/01/10 02:53:39;;;;;;;17.23;16.42;;;9.80;82.90;;;;;;5038621;28;20044;-81
2022/01/10 02:56:05;;;;;;;16.85;16.05;;;9.80;82.90;;;;;;5046909;28;20044;-81
2022/01/10 02:58:31;;;;;;;17.05;16.25;;;9.80;83.00;;;;;;5048952;28;20029;-81
2022/01/10 03:00:58;;;;;;;17.13;16.33;;;9.80;82.90;;;;;;5037498;28;20037;-81
2022/01/10 03:03:28;;;;;;;17.17;16.38;;;9.80;82.90;;;;;;5070106;28;20037;-81
2022/01/10 03:05:54;;;;;;;16.75;15.95;;;9.80;83.00;;;;;;5045731;28;20392;-81
2022/01/10 03:08:20;;;;;;;16.08;15.38;;;9.80;83.00;;;;;;5043187;28;20548;-81
2022/01/10 03:10:46;;;;;;;16.73;15.93;;;9.80;82.90;;;;;;5048515;28;20033;-81
2022/01/10 03:13:12;;;;;;;16.67;15.88;;;9.80;82.90;;;;;;5038333;28;20048;-81
2022/01/10 03:15:38;;;;;;;16.33;15.63;;;9.80;82.90;;;;;;5036359;28;20041;-81
2022/01/10 03:18:04;;;;;;;16.70;15.90;;;9.80;82.90;;;;;;5034345;28;20058;-81
2022/01/10 03:20:30;;;;;;;17.17;16.38;;;9.80;82.90;;;;;;5047972;28;20053;-81
2022/01/10 03:22:56;;;;;;;16.27;15.57;;;9.80;82.90;;;;;;5048757;28;20036;-81
2022/01/10 03:25:22;;;;;;;17.00;16.20;;;9.70;82.90;;;;;;5036057;28;20482;-81
2022/01/10 03:27:49;;;;;;;17.27;16.45;;;9.70;82.90;;;;;;5041251;28;20037;-81
2022/01/10 03:30:15;;;;;;;16.10;15.40;;;9.70;83.00;;;;;;5066100;28;20514;-81
2022/01/10 03:32:42;;;;;;;16.05;15.35;;;9.70;83.00;;;;;;5048154;28;20030;-81
2022/01/10 03:35:09;;;;;;;16.10;15.40;;;9.70;83.00;;;;;;5033071;28;20036;-81
2022/01/10 03:37:35;;;;;;;17.10;16.30;;;9.70;83.00;;;;;;5040158;28;20030;-81
2022/01/10 03:40:01;;;;;;;16.20;15.50;;;9.70;83.00;;;;;;5068692;28;20044;-80
2022/01/10 03:42:27;;;;;;;16.48;15.68;;;9.70;83.00;;;;;;5053040;28;20029;-81
2022/01/10 03:44:53;;;;;;;16.92;16.13;;;9.70;83.00;;;;;;5036404;28;20044;-81
2022/01/10 03:47:21;;;;;;;16.63;15.82;;;9.60;83.00;;;;;;5035257;28;20049;-81
2022/01/10 03:49:47;;;;;;;16.17;15.48;;;9.60;83.10;;;;;;5035276;28;20049;-81
2022/01/10 03:52:13;;;;;;;16.70;15.90;;;9.60;83.20;;;;;;5043314;28;20071;-81
2022/01/10 03:54:39;;;;;;;16.17;15.48;;;9.60;83.10;;;;;;5041763;28;20029;-81
2022/01/10 03:57:06;;;;;;;16.75;15.95;;;9.60;83.10;;;;;;5036876;28;20049;-81
2022/01/10 03:59:33;;;;;;;16.95;16.15;;;9.60;83.10;;;;;;5047299;28;20041;-81
2022/01/10 04:01:59;;;;;;;16.00;15.30;;;9.60;83.20;;;;;;5035345;28;20049;-81
2022/01/10 04:04:25;;;;;;;16.30;15.60;;;9.50;83.10;;;;;;5039373;28;20041;-81
2022/01/10 04:06:51;;;;;;;17.05;16.25;;;9.60;83.20;;;;;;5046185;28;20040;-82
2022/01/10 04:09:21;;;;;;;16.80;16.00;;;9.50;83.10;;;;;;5045516;28;20029;-81
2022/01/10 04:11:48;;;;;;;16.73;15.93;;;9.50;83.10;;;;;;5048003;28;20036;-81
2022/01/10 04:14:14;;;;;;;16.48;15.73;;;9.60;83.20;;;;;;5049235;28;20037;-81
2022/01/10 04:16:40;;;;;;;16.70;15.90;;;9.60;83.20;;;;;;5036322;28;20045;-81
2022/01/10 04:19:06;;;;;;;17.20;16.40;;;9.60;83.20;;;;;;5027080;28;20041;-81
2022/01/10 04:21:33;;;;;;;17.17;16.38;;;9.60;83.10;;;;;;5072139;28;20521;-81
2022/01/10 04:23:59;;;;;;;18.70;17.70;;;9.60;83.10;;;;;;5046251;28;20408;-80
2022/01/10 04:26:25;;;;;;;18.17;17.38;;;9.60;83.10;;;;;;5048131;28;20041;-81
2022/01/10 04:28:51;;;;;;;17.58;16.77;;;9.60;83.10;;;;;;5047785;28;20025;-81
2022/01/10 04:31:17;;;;;;;17.10;16.30;;;9.70;83.10;;;;;;5044489;28;20048;-81
2022/01/10 04:33:43;;;;;;;16.35;15.63;;;9.70;83.00;;;;;;5045429;28;20033;-81
2022/01/10 04:36:09;;;;;;;17.00;16.20;;;9.70;83.00;;;;;;5033414;28;20043;-81
2022/01/10 04:38:35;;;;;;;16.65;15.85;;;9.70;83.00;;;;;;5050626;28;20033;-81
2022/01/10 04:41:04;;;;;;;17.80;17.00;;;9.70;83.00;;;;;;5048977;28;20048;-80
2022/01/10 04:43:30;;;;;;;16.45;15.70;;;9.70;83.00;;;;;;5046667;28;20033;-81
2022/01/10 04:45:56;;;;;;;16.55;15.75;;;9.80;83.10;;;;;;5038905;28;20498;-81
2022/01/10 04:48:23;;;;;;;17.02;16.23;;;9.80;83.10;;;;;;5037359;28;20033;-81
2022/01/10 04:53:34;;;;;;;17.98;17.17;;;9.70;83.00;;;;;;5052112;28;20041;-81
2022/01/10 04:56:00;;;;;;;17.98;17.17;;;9.80;83.10;;;;;;5034361;28;20462;-81
2022/01/10 04:58:26;;;;;;;18.05;17.15;;;9.80;83.10;;;;;;5047807;28;20033;-81
2022/01/10 05:00:55;;;;;;;17.75;16.95;;;9.80;83.10;;;;;;5042386;28;20435;-81
2022/01/10 05:03:21;;;;;;;17.77;16.98;;;9.80;83.10;;;;;;5043558;28;20025;-81
2022/01/10 05:05:52;;;;;;;16.95;16.15;;;9.80;83.10;;;;;;5045947;28;20029;-81
2022/01/10 05:08:19;;;;;;;17.70;16.90;;;9.80;83.10;;;;;;5033685;28;20032;-81
2022/01/10 05:10:46;;;;;;;17.77;16.98;;;9.80;83.10;;;;;;5033979;28;20026;-81
2022/01/10 05:13:12;;;;;;;16.42;15.68;;;9.80;83.10;;;;;;5046091;28;20037;-81
2022/01/10 05:15:38;;;;;;;17.15;16.35;;;9.80;83.10;;;;;;5038235;28;20030;-81
2022/01/10 05:18:04;;;;;;;17.02;16.23;;;9.80;83.10;;;;;;5036463;28;20041;-81
2022/01/10 05:20:30;;;;;;;17.15;16.35;;;9.80;83.10;;;;;;5046099;28;20057;-81
2022/01/10 05:22:57;;;;;;;16.55;15.75;;;9.80;83.00;;;;;;5033473;28;20097;-81
2022/01/10 05:25:23;;;;;;;18.63;17.50;;;9.80;83.10;;;;;;5040152;28;20410;-81
2022/01/10 05:27:49;;;;;;;17.15;16.35;;;9.80;83.10;;;;;;5042202;28;20053;-81
2022/01/10 05:30:15;;;;;;;17.27;16.48;;;9.80;83.10;;;;;;5043726;28;20029;-81
2022/01/10 05:32:41;;;;;;;17.73;16.92;;;9.80;83.20;;;;;;5047042;28;20029;-81
2022/01/10 05:35:07;;;;;;;18.67;17.77;;;9.80;83.20;;;;;;5033846;28;20037;-81
2022/01/10 05:37:33;;;;;;;18.85;17.45;;;9.80;83.10;;;;;;5034773;28;20038;-81
2022/01/10 05:40:00;;;;;;;17.67;16.88;;;9.80;83.20;;;;;;5037112;28;20489;-81
2022/01/10 05:42:26;;;;;;;18.15;17.35;;;9.80;83.10;;;;;;5054100;28;20040;-80
2022/01/10 05:44:52;;;;;;;17.52;16.73;;;9.80;83.10;;;;;;5033624;28;20402;-82
2022/01/10 05:47:19;;;;;;;17.58;16.77;;;9.80;83.10;;;;;;5046773;28;20045;-81
2022/01/10 05:49:48;;;;;;;17.52;16.67;;;9.80;83.10;;;;;;5046370;28;20051;-81
2022/01/10 05:52:14;;;;;;;17.42;16.63;;;9.80;83.20;;;;;;5053981;28;20033;-81
2022/01/10 05:54:40;;;;;;;16.83;16.02;;;9.80;83.20;;;;;;5051994;28;20032;-81
2022/01/10 05:57:06;;;;;;;16.58;15.77;;;9.80;83.20;;;;;;5051979;28;20037;-81
2022/01/10 05:59:32;;;;;;;17.73;16.85;;;9.80;83.10;;;;;;5047110;28;20033;-82
2022/01/10 06:01:59;;;;;;;17.73;16.92;;;9.80;83.20;;;;;;5045703;28;20033;-81
2022/01/10 06:04:25;;;;;;;17.95;17.13;;;9.80;83.30;;;;;;5034773;28;20033;-82
2022/01/10 06:06:51;;;;;;;18.42;17.52;;;9.80;83.20;;;;;;5036430;28;20292;-81
2022/01/10 06:09:17;;;;;;;16.58;15.77;;;9.80;83.30;;;;;;5036664;28;20389;-81
2022/01/10 06:11:43;;;;;;;17.80;16.98;;;9.80;83.30;;;;;;5030964;28;20049;-81
2022/01/10 06:14:09;;;;;;;17.90;17.10;;;9.80;83.30;;;;;;5031644;28;20048;-82
2022/01/10 06:16:35;;;;;;;17.83;17.02;;;9.80;83.30;;;;;;5047276;28;20044;-81
2022/01/10 06:19:01;;;;;;;18.05;17.25;;;9.80;83.30;;;;;;5047172;28;20033;-81
2022/01/10 06:21:28;;;;;;;18.67;17.77;;;9.80;83.30;;;;;;5044362;28;20033;-82
2022/01/10 06:23:54;;;;;;;16.65;15.85;;;9.80;83.30;;;;;;5057798;28;20040;-81
2022/01/10 06:26:20;;;;;;;17.23;16.42;;;9.80;83.30;;;;;;5052505;28;20401;-81
2022/01/10 06:28:46;;;;;;;17.05;16.25;;;9.80;83.30;;;;;;5052950;28;20033;-81
2022/01/10 06:31:13;;;;;;;16.98;16.17;;;9.80;83.30;;;;;;5085138;28;20041;-81
2022/01/10 06:33:40;;;;;;;16.90;16.10;;;9.80;83.30;;;;;;5051269;28;20036;-81
2022/01/10 06:36:08;;;;;;;18.00;16.75;;;9.70;83.20;;;;;;5051503;28;20037;-82
2022/01/10 06:38:35;;;;;;;18.48;17.48;;;9.70;83.20;;;;;;5051433;28;20036;-81
2022/01/10 06:41:01;;;;;;;17.73;16.85;;;9.70;83.30;;;;;;5051480;28;20028;-81
2022/01/10 06:43:27;;;;;;;18.50;17.60;;;9.70;83.40;;;;;;5054035;28;20466;-81
2022/01/10 06:45:54;;;;;;;17.67;16.77;;;9.70;83.40;;;;;;5050000;28;20040;-81
2022/01/10 06:48:20;;;;;;;17.70;16.90;;;9.60;83.40;;;;;;5049936;28;20394;-83
2022/01/10 06:50:48;;;;;;;17.30;16.50;;;9.70;83.50;;;;;;5046139;28;20041;-83
2022/01/10 06:53:15;;;;;;;18.63;17.73;;;9.70;83.50;;;;;;5035339;28;20034;-87
2022/01/10 06:55:41;;;;;;;17.90;17.10;;;9.70;83.40;;;;;;5048636;28;20389;-81
2022/01/10 06:58:07;;;;;;;18.33;17.48;;;9.70;83.40;;;;;;5051321;28;20374;-81
2022/01/10 07:00:33;;;;;;;18.42;17.42;;;9.80;83.40;;;;;;5050553;28;20107;-83
2022/01/10 07:02:59;;;;;;;17.88;17.08;;;9.70;83.30;;;;;;5051100;28;20040;-81
2022/01/10 07:05:26;;;;;;;17.70;16.90;;;9.80;83.40;;;;;;5052038;28;20052;-82
2022/01/10 07:07:52;;;;;;;17.98;17.17;;;9.80;83.40;;;;;;5047388;28;20047;-84
2022/01/10 07:10:19;;;;;;;18.20;17.40;;;9.80;83.40;;;;;;5040454;28;20478;-84
2022/01/10 07:12:45;;;;;;;18.42;17.55;;;9.80;84.10;;;;;;5047926;28;20033;-84
2022/01/10 07:15:11;;;;;;;17.98;17.17;;;9.80;83.40;;;;;;5046967;28;20032;-84
2022/01/10 07:17:37;;;;;;;17.75;16.95;;;9.80;83.40;;;;;;5046350;28;20064;-84
2022/01/10 07:20:03;;;;;;;18.20;17.30;;;9.80;83.40;;;;;;5050571;28;20033;-85
2022/01/10 07:22:29;;;;;;;18.13;17.33;;;9.80;83.40;;;;;;5048418;28;20033;-84
2022/01/10 07:24:56;;;;;;;17.77;16.98;;;9.80;83.40;;;;;;5047196;28;20036;-84
2022/01/10 07:27:22;;;;;;;17.80;16.95;;;9.80;83.40;;;;;;5042764;28;20045;-84
2022/01/10 07:29:50;;;;;;;17.88;17.08;;;9.80;83.70;;;;;;5054762;28;20041;-86
2022/01/10 07:32:17;;;;;;;18.52;17.60;;;9.80;83.40;;;;;;5032593;28;20044;-83
2022/01/10 07:34:43;;;;;;;18.50;17.60;;;9.80;83.40;;;;;;5048476;28;20478;-82
2022/01/10 07:37:09;;;;;;;18.52;17.58;;;9.80;83.40;;;;;;5048643;28;20037;-87
2022/01/10 07:39:35;;;;;;;18.45;17.55;;;9.80;83.40;;;;;;5024982;28;20042;-83
2022/01/10 07:42:01;;;;;;;17.88;17.08;;;9.80;83.40;;;;;;5033296;28;20041;-84
2022/01/10 07:44:27;;;;;;;18.73;17.73;;;9.80;83.50;;;;;;5046274;28;20025;-83
2022/01/10 07:46:55;;;;;;;17.88;17.08;;;9.70;83.40;;;;;;5039661;28;20045;-83
2022/01/10 07:49:21;;;;;;;17.63;16.75;;;9.70;83.50;;;;;;5069614;28;20030;-83
2022/01/10 07:51:47;;;;;;;17.75;16.88;;;9.80;83.50;;;;;;5038274;28;20029;-83
2022/01/10 07:54:13;;;;;;;18.13;17.33;;;9.80;83.40;;;;;;5039951;28;20417;-83
2022/01/10 07:56:39;;;;;;;17.50;16.70;;;9.70;83.50;;;;;;5044316;28;20044;-82
2022/01/10 07:59:05;;;;;;;17.92;17.05;;;9.70;84.30;;;;;;5036377;28;20428;-83
2022/01/10 08:01:31;;;;;;;18.20;17.33;;;9.70;83.50;;;;;;5069968;28;20039;-81
2022/01/10 08:03:57;;;;;;;17.15;16.35;;;9.70;83.50;;;;;;5052645;28;20047;-82
2022/01/10 08:06:24;;;;;;;17.65;16.75;;;9.70;83.50;;;;;;5064008;28;20474;-82
2022/01/10 08:08:50;;;;;;;17.77;16.80;;;9.80;83.50;;;;;;5048367;28;20056;-81
2022/01/10 08:11:16;;;;;;;18.20;17.30;;;9.80;83.50;;;;;;5063717;28;20032;-81
2022/01/10 08:13:42;;;;;;;18.30;17.40;;;9.70;83.50;;;;;;5069681;28;20033;-81
2022/01/10 08:16:08;;;;;;;17.92;17.02;;;9.70;83.50;;;;;;5061924;28;20040;-81
2022/01/10 08:18:35;;;;;;;18.88;17.05;;;9.70;83.50;;;;;;5047531;28;20032;-81
2022/01/10 08:21:02;;;;;;;18.70;17.77;;;9.70;83.50;;;;;;5044526;28;20397;-81
2022/01/10 08:23:29;;;;;;;18.23;17.33;;;9.70;83.50;;;;;;5043222;28;20037;-80
2022/01/10 08:25:56;;;;;;;17.30;16.50;;;9.70;83.50;;;;;;5043151;28;20037;-81
2022/01/10 08:28:22;;;;;;;17.33;16.48;;;9.70;83.50;;;;;;5041201;28;20406;-83
2022/01/10 08:30:49;;;;;;;17.63;16.73;;;9.70;83.50;;;;;;5055241;28;20494;-82
2022/01/10 08:33:15;;;;;;;17.90;16.95;;;9.80;83.60;;;;;;5055916;28;20033;-83
2022/01/10 08:35:41;;;;;;;19.20;18.20;;;9.80;83.50;;;;;;5045355;28;20032;-83
2022/01/10 08:38:07;;;;;;;17.55;16.45;;;9.80;83.60;;;;;;5034744;28;20029;-82
2022/01/10 08:40:33;;;;;;;17.13;16.33;;;9.80;83.60;;;;;;5036880;28;20052;-82
2022/01/10 08:43:02;;;;;;;17.85;17.05;;;9.80;83.50;;;;;;5057763;28;20033;-82
2022/01/10 08:45:28;;;;;;;17.95;17.05;;;9.90;83.50;;;;;;5044328;28;20041;-80
2022/01/10 08:47:54;;;;;;;17.08;16.27;;;9.90;83.50;;;;;;5056849;28;20041;-81
2022/01/10 08:50:23;;;;;;;18.83;17.83;;;9.90;83.50;;;;;;5048217;28;20037;-80
2022/01/10 08:52:49;;;;;;;19.30;18.33;;;9.90;83.50;;;;;;5048618;28;20032;-81
2022/01/10 08:55:15;;;;;;;19.10;18.10;;;9.90;83.40;;;;;;5045124;28;20032;-82
2022/01/10 08:57:41;;;;;;;17.63;16.83;;;9.90;83.50;;;;;;5045648;28;20025;-81
2022/01/10 09:00:08;;;;;;;18.42;17.52;;;9.90;83.50;;;;;;5049634;28;22041;-82
2022/01/10 09:02:34;;;;;;;17.00;16.20;;;9.90;83.50;;;;;;5054106;28;20035;-83
2022/01/10 09:05:00;;;;;;;17.20;16.40;;;9.90;83.50;;;;;;5047198;28;20470;-83
2022/01/10 09:07:26;;;;;;;17.52;16.73;;;10.00;83.50;;;;;;5053820;28;20044;-82
2022/01/10 09:09:52;;;;;;;18.70;17.65;;;10.00;83.50;;;;;;5048042;28;20387;-82
2022/01/10 09:12:19;;;;;;;18.15;17.25;;;10.00;83.40;;;;;;5048617;28;20044;-82
2022/01/10 09:14:45;;;;;;;17.20;16.40;;;10.00;83.50;;;;;;5049018;28;20474;-82
2022/01/10 09:17:11;;;;;;;18.35;17.45;;;10.00;84.20;;;;;;5047535;28;20092;-80
2022/01/10 09:19:37;;;;;;;17.58;16.77;;;10.00;83.40;;;;;;5051859;28;20036;-81
2022/01/10 09:22:03;;;;;;;17.92;17.02;;;10.00;83.40;;;;;;5048743;28;20033;-80
2022/01/10 09:24:30;;;;;;;18.13;17.33;;;10.00;83.30;;;;;;5049923;28;20032;-80
2022/01/10 09:26:56;;;;;;;17.55;16.75;;;10.00;83.40;;;;;;5047049;28;20037;-79
2022/01/10 09:29:23;;;;;;;18.00;17.13;;;10.00;83.50;;;;;;5047492;28;20037;-78
2022/01/10 09:31:50;;;;;;;19.27;18.27;;;10.00;83.50;;;;;;5049116;28;20037;-77
2022/01/10 09:34:16;;;;;;;19.27;18.27;;;10.00;83.50;;;;;;5050594;28;20082;-78
2022/01/10 09:36:42;;;;;;;18.95;17.65;;;10.00;83.50;;;;;;5049471;28;20025;-77
2022/01/10 09:39:09;;;;;;;18.65;17.75;;;10.00;83.40;;;;;;5048387;28;20040;-78
2022/01/10 09:41:35;;;;;;;18.45;17.55;;;10.00;83.50;;;;;;5030183;28;20037;-80
2022/01/10 09:44:03;;;;;;;17.85;17.05;;;10.10;83.50;;;;;;5047581;28;20037;-82
2022/01/10 09:46:29;;;;;;;17.13;16.33;;;10.00;83.40;;;;;;5043649;28;20029;-81
2022/01/10 09:48:59;;;;;;;17.60;16.80;;;10.00;83.50;;;;;;5031409;28;20056;-81
2022/01/10 09:51:27;;;;;;;18.13;17.20;;;10.00;83.40;;;;;;5032809;28;20047;-82
2022/01/10 09:53:54;;;;;;;17.17;16.38;;;10.00;83.40;;;;;;5049303;28;20382;-82
2022/01/10 09:56:21;;;;;;;18.38;17.38;;;10.10;83.50;;;;;;5057226;28;20036;-81
2022/01/10 09:58:47;;;;;;;16.70;15.90;;;10.10;83.50;;;;;;5050016;28;20029;-81
2022/01/10 10:01:15;;;;;;;18.08;17.27;;;10.10;83.50;;;;;;5051183;28;20044;-81
2022/01/10 10:03:45;;;;;;;18.20;17.30;;;10.10;83.50;;;;;;5046986;28;20029;-80
2022/01/10 10:06:11;;;;;;;17.80;17.00;;;10.10;83.50;;;;;;5047202;28;20018;-81
2022/01/10 10:08:38;;;;;;;17.02;16.23;;;10.20;83.50;;;;;;5037156;28;20127;-81
2022/01/10 10:11:06;;;;;;;17.27;16.48;;;10.20;83.50;;;;;;5019251;28;20048;-81
2022/01/10 10:13:52;;;;;;;17.17;16.38;;;10.20;83.40;;;;;;5039306;28;20506;-81
2022/01/10 10:16:18;;;;;;;17.75;16.92;;;10.30;83.40;;;;;;5046115;28;20060;-82
2022/01/10 10:18:47;;;;;;;17.35;16.55;;;10.30;83.40;;;;;;5040583;28;20030;-80
2022/01/10 10:21:14;;;;;;;18.23;17.33;;;10.30;83.30;;;;;;5025696;28;20485;-81
2022/01/10 10:23:46;;;;;;;18.25;17.15;;;10.30;83.30;;;;;;5051852;28;20024;-84
2022/01/10 10:26:16;;;;;;;17.85;16.85;;;10.30;83.30;;;;;;5052088;28;20482;-81
2022/01/10 10:28:44;;;;;;;17.15;16.35;;;10.40;83.30;;;;;;5053857;28;20092;-81
2022/01/10 10:31:10;;;;;;;17.85;16.98;;;10.40;83.30;;;;;;5049805;28;20371;-83
2022/01/10 10:33:36;;;;;;;17.85;17.05;;;10.40;83.20;;;;;;5051506;28;20041;-81
2022/01/10 10:36:07;;;;;;;17.35;16.55;;;10.40;83.30;;;;;;5050649;28;20060;-82
2022/01/10 10:38:34;;;;;;;17.65;16.85;;;10.40;83.30;;;;;;5051820;28;20036;-82
2022/01/10 10:41:01;;;;;;;17.05;16.25;;;10.40;83.20;;;;;;5052884;28;20032;-81
2022/01/10 10:43:32;;;;;;;18.10;17.10;;;10.40;83.20;;;;;;5051162;28;20040;-82
2022/01/10 10:46:03;;;;;;;18.33;17.42;;;10.30;83.20;;;;;;5049458;28;20048;-81
2022/01/10 10:48:30;;;;;;;17.30;16.50;;;10.30;83.30;;;;;;5049854;28;20040;-81
2022/01/10 10:50:59;;;;;;;17.77;16.98;;;10.20;83.40;;;;;;5050673;28;20033;-81
2022/01/10 10:53:26;;;;;;;17.70;16.85;;;10.20;83.40;;;;;;5050972;28;20386;-82
2022/01/10 10:55:52;;;;;;;18.48;17.58;;;10.20;83.40;;;;;;5050665;28;20469;-81
2022/01/10 10:58:18;;;;;;;17.30;16.48;;;10.20;83.50;;;;;;5051377;28;20368;-84
2022/01/10 11:00:44;;;;;;;16.92;16.13;;;10.20;83.50;;;;;;5050100;28;20029;-83
2022/01/10 11:03:12;;;;;;;17.85;16.95;;;10.30;83.60;;;;;;5051056;28;20562;-83
2022/01/10 11:05:38;;;;;;;17.27;16.48;;;10.30;83.50;;;;;;5051687;28;20052;-85
2022/01/10 11:08:05;;;;;;;17.52;16.73;;;10.30;83.40;;;;;;5033666;28;20049;-83
2022/01/10 11:10:31;;;;;;;18.20;17.40;;;10.30;83.30;;;;;;5053771;28;20033;-83
2022/01/10 11:12:58;;;;;;;17.73;16.92;;;10.30;83.40;;;;;;5050770;28;20330;-83
2022/01/10 11:15:24;;;;;;;17.95;17.05;;;10.30;83.30;;;;;;5050284;28;20029;-83
2022/01/10 11:17:53;;;;;;;17.85;17.02;;;10.30;83.40;;;;;;5034501;28;20049;-83
2022/01/10 11:20:20;;;;;;;17.50;16.70;;;10.30;83.40;;;;;;5048785;28;20033;-83
2022/01/10 11:22:54;;;;;;;17.48;16.67;;;10.40;83.40;;;;;;5052278;28;20025;-83
2022/01/10 11:25:31;;;;;;;17.92;17.05;;;10.40;83.30;;;;;;5068353;28;20032;-83
2022/01/10 11:28:08;;;;;;;17.95;17.15;;;10.50;83.40;;;;;;5049630;28;20041;-83
2022/01/10 11:30:44;;;;;;;18.10;17.30;;;10.50;83.20;;;;;;5043925;28;20037;-82
2022/01/10 11:33:13;;;;;;;18.33;17.42;;;10.50;83.00;;;;;;5049611;28;20036;-84
2022/01/10 11:35:54;;;;;;;17.98;17.17;;;10.60;83.00;;;;;;5032267;28;20486;-82
2022/01/10 11:38:29;;;;;;;17.83;17.02;;;10.60;83.00;;;;;;5046257;28;20068;-79
2022/01/10 11:41:06;;;;;;;17.33;16.52;;;10.60;83.00;;;;;;5051927;28;20052;-80
2022/01/10 11:43:43;;;;;;;17.42;16.63;;;10.60;83.10;;;;;;5051601;28;20037;-82
2022/01/10 11:46:23;;;;;;;17.75;16.95;;;10.70;83.00;;;;;;5032648;28;20033;-82
2022/01/10 11:48:51;;;;;;;16.70;15.80;;;10.70;82.90;;;;;;5051534;28;20041;-82
2022/01/10 11:51:22;;;;;;;17.70;16.83;;;10.70;82.90;;;;;;5048789;28;20359;-83
2022/01/10 11:53:50;;;;;;;18.35;17.25;;;10.80;82.90;;;;;;5041134;28;20040;-81
2022/01/10 11:56:24;;;;;;;17.13;16.33;;;10.80;82.80;;;;;;5035288;28;20773;-82
2022/01/10 11:59:28;;;;;;;17.23;16.42;;;10.80;82.70;;;;;;5047632;28;20025;-81
2022/01/10 12:02:02;;;;;;;18.35;17.45;;;10.70;82.70;;;;;;5063219;28;20033;-82
2022/01/10 12:04:30;;;;;;;17.02;16.23;;;10.70;82.80;;;;;;5047977;28;20045;-83
2022/01/10 12:06:56;;;;;;;17.98;16.98;;;10.70;83.00;;;;;;5048409;28;20517;-82
2022/01/10 12:09:23;;;;;;;17.10;16.30;;;10.70;83.00;;;;;;5033326;28;20057;-82
2022/01/10 12:11:51;;;;;;;17.35;16.55;;;10.80;82.90;;;;;;5031878;28;20040;-82
2022/01/10 12:14:17;;;;;;;17.88;17.02;;;10.80;82.90;;;;;;5047821;28;20047;-82
2022/01/10 12:16:43;;;;;;;17.88;17.08;;;10.90;82.80;;;;;;5033143;28;20093;-82
2022/01/10 12:19:10;;;;;;;18.33;17.42;;;11.00;82.80;;;;;;5015825;28;20521;-82
2022/01/10 12:21:36;;;;;;;17.80;17.00;;;11.00;83.40;;;;;;5018707;28;20032;-82
2022/01/10 12:24:03;;;;;;;17.35;16.55;;;11.10;82.60;;;;;;5033038;28;20056;-82
2022/01/10 12:26:29;;;;;;;17.90;17.00;;;11.20;82.60;;;;;;5030390;28;20497;-82
2022/01/10 12:28:57;;;;;;;18.17;17.38;;;11.20;82.40;;;;;;5012247;28;20053;-83
2022/01/10 12:31:24;;;;;;;17.77;16.98;;;11.30;82.30;;;;;;5010240;28;20040;-82
2022/01/10 12:33:51;;;;;;;18.20;17.33;;;11.30;82.20;;;;;;5023167;28;20041;-82
2022/01/10 12:36:18;;;;;;;18.58;17.73;;;11.30;82.20;;;;;;5037756;28;20588;-83
2022/01/10 12:38:47;;;;;;;19.15;18.25;;;11.30;82.20;;;;;;5013527;28;20053;-81
2022/01/10 12:41:13;;;;;;;19.80;18.90;;;11.30;82.20;;;;;;5012075;28;20502;-82
2022/01/10 12:43:39;;;;;;;18.05;17.25;;;11.20;82.40;;;;;;5029846;28;20036;-82